Time;durP1;ratioP1;P1;durP2;ratioP2;P2;SDS_P1;SDS_P2;PMS_P1;PMS_P2;Temp;Humidity;BMP_temperature;BMP_pressure;BME280_temperature;BME280_humidity;BME280_pressure;Samples;Min_cycle;Max_cycle;Signal;HPM_P1;HPM_P2
2021/07/04 00:00:27;;;;;;;31.60;19.63;;;;;;;15.50;100.00;95702.00;1014915;29;20046;-69
2021/07/04 00:00:57;;;;;;;32.63;20.30;;;;;;;15.50;100.00;95701.22;1021118;29;20129;-69
2021/07/04 00:01:28;;;;;;;31.02;20.33;;;;;;;15.52;100.00;95706.97;1014878;29;20561;-69
2021/07/04 00:01:59;;;;;;;28.08;18.30;;;;;;;15.53;100.00;95713.84;1014956;29;20386;-69
2021/07/04 00:02:29;;;;;;;28.48;17.98;;;;;;;15.51;100.00;95719.41;1010115;29;20591;-70
2021/07/04 00:03:03;;;;;;;27.52;18.13;;;;;;;15.40;100.00;95696.13;1011253;29;20044;-70
2021/07/04 00:03:33;;;;;;;23.33;16.95;;;;;;;15.49;100.00;95718.13;1010715;29;20136;-69
2021/07/04 00:04:04;;;;;;;28.05;19.60;;;;;;;15.47;100.00;95712.38;1013120;29;20067;-69
2021/07/04 00:04:35;;;;;;;29.90;18.70;;;;;;;15.47;100.00;95713.16;1022959;29;20054;-70
2021/07/04 00:05:07;;;;;;;33.47;21.13;;;;;;;15.49;100.00;95712.84;1018551;29;20481;-69
2021/07/04 00:05:47;;;;;;;29.10;19.33;;;;;;;15.41;100.00;95703.75;1013921;29;20179;-69
2021/07/04 00:06:18;;;;;;;;;;;;;;;15.49;100.00;95707.56;1011386;29;20020;-69
2021/07/04 00:06:48;;;;;;;30.30;18.33;;;;;;;15.49;100.00;95713.66;1014793;29;20270;-68
2021/07/04 00:07:18;;;;;;;30.38;18.65;;;;;;;15.50;100.00;95709.16;1018150;29;20034;-69
2021/07/04 00:07:49;;;;;;;34.40;20.77;;;;;;;15.48;100.00;95704.13;1022299;29;20035;-70
2021/07/04 00:08:22;;;;;;;30.17;20.00;;;;;;;15.48;100.00;95706.00;1022941;29;20695;-70
2021/07/04 00:08:55;;;;;;;26.08;18.13;;;;;;;15.48;100.00;95706.00;1018467;29;20039;-66
2021/07/04 00:09:26;;;;;;;29.73;19.85;;;;;;;15.47;100.00;95707.88;1014770;29;20043;-69
2021/07/04 00:09:56;;;;;;;28.05;18.92;;;;;;;15.48;100.00;95698.06;1017573;29;20087;-70
2021/07/04 00:10:29;;;;;;;32.58;19.95;;;;;;;15.49;100.00;95705.72;1014809;29;20044;-69
2021/07/04 00:11:08;;;;;;;25.98;17.92;;;;;;;15.49;100.00;95705.72;1018563;29;20722;-69
2021/07/04 00:11:38;;;;;;;34.72;21.65;;;;;;;15.49;100.00;95707.56;1016174;29;20020;-69
2021/07/04 00:12:09;;;;;;;27.50;18.38;;;;;;;15.48;100.00;95703.34;1018735;29;20043;-69
2021/07/04 00:12:39;;;;;;;30.92;19.98;;;;;;;15.51;100.00;95710.72;1018614;29;20114;-66
2021/07/04 00:13:13;;;;;;;34.20;22.08;;;;;;;15.49;100.00;95697.78;1018805;29;20063;-70
2021/07/04 00:13:43;;;;;;;29.00;20.45;;;;;;;15.50;100.00;95707.28;1010732;29;20032;-69
2021/07/04 00:14:13;;;;;;;29.92;20.73;;;;;;;15.51;100.00;95700.13;1010707;29;20422;-69
2021/07/04 00:14:44;;;;;;;32.95;20.98;;;;;;;15.48;100.00;95692.78;1010887;29;20391;-69
2021/07/04 00:15:16;;;;;;;25.05;18.70;;;;;;;15.49;100.00;95689.06;1011521;29;20822;-69
2021/07/04 00:15:46;;;;;;;27.65;18.27;;;;;;;15.53;100.00;95697.97;1016829;29;20036;-69
2021/07/04 00:16:17;;;;;;;27.00;18.05;;;;;;;15.54;100.00;95696.91;1014736;29;20536;-69
2021/07/04 00:16:47;;;;;;;28.77;18.70;;;;;;;15.53;100.00;95692.69;1015520;29;20032;-69
2021/07/04 00:17:18;;;;;;;25.88;17.90;;;;;;;15.53;100.00;95684.75;1022046;29;20063;-69
2021/07/04 00:17:48;;;;;;;34.00;18.95;;;;;;;15.45;100.00;95678.28;1023068;29;20042;-70
2021/07/04 00:18:24;;;;;;;26.00;17.73;;;;;;;15.55;100.00;95682.59;1022495;29;20062;-70
2021/07/04 00:18:55;;;;;;;23.63;17.88;;;;;;;15.54;100.00;95686.31;1022759;29;20050;-70
2021/07/04 00:19:25;;;;;;;24.40;17.83;;;;;;;15.53;100.00;95687.41;1018813;29;20020;-70
2021/07/04 00:19:58;;;;;;;25.50;16.40;;;;;;;15.48;100.00;95682.19;1008495;29;20112;-69
2021/07/04 00:20:29;;;;;;;22.65;15.88;;;;;;;15.55;100.00;95695.81;1010965;29;20032;-69
2021/07/04 00:21:00;;;;;;;21.60;15.90;;;;;;;15.55;100.00;95685.22;1011553;29;20032;-69
2021/07/04 00:21:30;;;;;;;25.45;16.02;;;;;;;15.52;100.00;95681.31;1010926;29;20044;-69
2021/07/04 00:22:01;;;;;;;23.80;17.58;;;;;;;15.55;100.00;95687.88;1010852;29;20169;-68
2021/07/04 00:22:31;;;;;;;28.80;19.20;;;;;;;15.55;100.00;95687.88;1011013;29;20052;-70
2021/07/04 00:23:01;;;;;;;24.73;18.67;;;;;;;15.51;100.00;95677.09;1006392;29;20029;-70
2021/07/04 00:23:32;;;;;;;22.25;16.92;;;;;;;15.57;100.00;95680.44;1011233;29;20055;-69
2021/07/04 00:24:03;;;;;;;29.20;18.33;;;;;;;15.59;100.00;95688.06;1014046;29;20118;-69
2021/07/04 00:24:33;;;;;;;27.75;19.00;;;;;;;15.60;100.00;95687.00;1017267;29;20768;-69
2021/07/04 00:25:06;;;;;;;24.60;17.40;;;;;;;15.60;100.00;95677.22;1018981;29;20031;-69
2021/07/04 00:25:36;;;;;;;31.60;20.23;;;;;;;15.60;100.00;95690.44;1010809;29;20039;-70
2021/07/04 00:26:07;;;;;;;37.30;23.13;;;;;;;15.64;100.00;95688.75;1007134;29;20438;-69
2021/07/04 00:26:37;;;;;;;33.20;20.75;;;;;;;15.63;100.00;95689.06;1006856;29;20032;-69
2021/07/04 00:27:08;;;;;;;25.55;18.17;;;;;;;15.63;100.00;95684.56;1006878;29;20719;-69
2021/07/04 00:27:38;;;;;;;25.02;18.58;;;;;;;15.63;100.00;95681.91;1018597;29;20081;-69
2021/07/04 00:28:11;;;;;;;23.15;17.50;;;;;;;15.58;100.00;95671.41;1018126;29;20047;-69
2021/07/04 00:28:42;;;;;;;23.02;17.52;;;;;;;15.63;100.00;95681.13;1018581;29;20907;-69
2021/07/04 00:29:12;;;;;;;27.00;18.17;;;;;;;15.64;100.00;95686.13;1010999;29;20123;-69
2021/07/04 00:29:42;;;;;;;27.20;18.58;;;;;;;15.59;100.00;95680.91;1018315;29;20034;-70
2021/07/04 00:30:14;;;;;;;26.50;18.88;;;;;;;15.64;100.00;95683.47;1014089;29;20027;-69
2021/07/04 00:30:44;;;;;;;27.77;18.75;;;;;;;15.64;100.00;95685.34;1014754;29;20606;-70
2021/07/04 00:31:15;;;;;;;24.23;17.90;;;;;;;15.56;100.00;95671.72;1014616;29;20035;-70
2021/07/04 00:31:48;;;;;;;25.85;17.92;;;;;;;15.65;100.00;95685.03;1008958;29;20056;-69
2021/07/04 00:32:19;;;;;;;29.23;18.17;;;;;;;15.60;100.00;95679.06;1011400;29;20056;-70
2021/07/04 00:32:49;;;;;;;23.88;16.45;;;;;;;15.67;100.00;95690.84;1018242;29;20038;-69
2021/07/04 00:33:20;;;;;;;24.27;16.40;;;;;;;15.66;100.00;95685.81;1019324;28;20727;-69
2021/07/04 00:33:50;;;;;;;20.25;15.15;;;;;;;15.65;100.00;95686.91;1018828;29;20087;-69
2021/07/04 00:34:21;;;;;;;25.85;16.73;;;;;;;15.63;100.00;95687.19;1018746;29;20482;-69
2021/07/04 00:34:51;;;;;;;23.00;16.98;;;;;;;15.60;100.00;95684.38;1014878;29;20036;-69
2021/07/04 00:35:22;;;;;;;21.95;15.68;;;;;;;15.60;100.00;95687.78;1014750;29;20032;-68
2021/07/04 00:35:56;;;;;;;24.60;16.45;;;;;;;15.60;100.00;95687.78;1014915;29;20031;-69
2021/07/04 00:36:26;;;;;;;21.83;17.33;;;;;;;15.61;100.00;95683.28;1014809;29;20508;-69
2021/07/04 00:36:57;;;;;;;24.13;15.45;;;;;;;15.60;100.00;95690.44;1015103;29;20036;-68
2021/07/04 00:37:27;;;;;;;21.92;15.95;;;;;;;15.61;100.00;95680.63;1017962;29;20035;-68
2021/07/04 00:37:58;;;;;;;22.83;17.58;;;;;;;15.59;100.00;95683.56;1018858;29;20035;-68
2021/07/04 00:38:28;;;;;;;21.05;16.85;;;;;;;15.57;100.00;95675.94;1014302;29;20063;-69
2021/07/04 00:38:58;;;;;;;23.13;16.77;;;;;;;15.61;100.00;95681.41;1014765;29;20032;-69
2021/07/04 00:39:32;;;;;;;22.25;15.88;;;;;;;15.61;100.00;95684.06;1014912;29;20120;-69
2021/07/04 00:40:04;;;;;;;23.75;17.13;;;;;;;15.60;100.00;95679.84;1012444;29;20044;-69
2021/07/04 00:40:36;;;;;;;24.60;18.40;;;;;;;15.61;100.00;95685.91;1018691;29;20471;-69
2021/07/04 00:41:06;;;;;;;21.00;15.77;;;;;;;15.54;100.00;95670.44;1013129;29;20028;-69
2021/07/04 00:41:36;;;;;;;23.88;15.73;;;;;;;15.60;100.00;95679.84;1014979;29;20024;-69
2021/07/04 00:42:08;;;;;;;23.55;16.27;;;;;;;15.60;100.00;95682.50;1010475;29;20368;-69
2021/07/04 00:42:39;;;;;;;23.80;19.05;;;;;;;15.52;100.00;95668.09;1011311;29;20029;-69
2021/07/04 00:43:10;;;;;;;26.35;18.20;;;;;;;15.60;100.00;95679.84;1014757;29;20541;-69
2021/07/04 00:43:42;;;;;;;23.85;17.73;;;;;;;15.61;100.00;95680.63;1014715;29;20092;-69
2021/07/04 00:44:13;;;;;;;25.52;18.25;;;;;;;15.59;100.00;95683.56;1015149;29;20024;-69
2021/07/04 00:44:43;;;;;;;21.70;17.13;;;;;;;15.51;100.00;95668.41;1015600;29;20028;-69
2021/07/04 00:45:22;;;;;;;22.00;16.42;;;;;;;15.56;100.00;95674.38;1010850;29;20033;-69
2021/07/04 00:45:53;;;;;;;25.38;17.40;;;;;;;15.60;100.00;95677.22;1007291;29;20025;-69
2021/07/04 00:46:24;;;;;;;26.40;17.88;;;;;;;15.59;100.00;95683.56;1010856;29;20106;-68
2021/07/04 00:46:54;;;;;;;23.38;17.27;;;;;;;15.60;100.00;95685.16;1012000;29;20111;-70
2021/07/04 00:47:25;;;;;;;24.70;17.27;;;;;;;15.58;100.00;95676.72;1014212;29;20028;-69
2021/07/04 00:47:55;;;;;;;22.73;16.52;;;;;;;15.53;100.00;95668.91;1019544;29;20032;-69
2021/07/04 00:48:25;;;;;;;23.33;17.02;;;;;;;15.59;100.00;95675.63;1022866;29;20175;-68
2021/07/04 00:48:57;;;;;;;27.05;19.25;;;;;;;15.62;100.00;95682.97;1022258;29;20119;-68
2021/07/04 00:49:28;;;;;;;23.23;16.65;;;;;;;15.60;100.00;95674.56;1022541;29;20043;-69
2021/07/04 00:49:58;;;;;;;24.10;17.40;;;;;;;15.59;100.00;95674.84;1018968;29;20618;-69
2021/07/04 00:50:29;;;;;;;21.55;15.70;;;;;;;15.51;100.00;95661.25;1018320;29;20472;-69
2021/07/04 00:51:00;;;;;;;22.42;16.40;;;;;;;15.59;100.00;95670.34;1015282;29;20020;-69
2021/07/04 00:51:30;;;;;;;22.48;16.52;;;;;;;15.60;100.00;95668.50;1014863;29;20099;-69
2021/07/04 00:52:01;;;;;;;27.65;17.58;;;;;;;15.54;100.00;95667.81;1018567;29;20028;-68
2021/07/04 00:52:32;;;;;;;25.25;17.83;;;;;;;15.55;100.00;95661.44;1018866;29;20016;-69
2021/07/04 00:53:02;;;;;;;22.60;16.38;;;;;;;15.59;100.00;95672.97;1014896;29;20052;-68
2021/07/04 00:53:33;;;;;;;20.58;16.45;;;;;;;15.57;100.00;95661.94;1014976;29;20035;-69
2021/07/04 00:54:03;;;;;;;21.85;16.55;;;;;;;15.57;100.00;95661.94;1018409;29;20023;-69
2021/07/04 00:54:36;;;;;;;21.98;16.92;;;;;;;15.62;100.00;95672.38;1018862;29;20545;-69
2021/07/04 00:55:07;;;;;;;24.55;17.70;;;;;;;15.60;100.00;95669.28;1018897;29;20028;-69
2021/07/04 00:55:41;;;;;;;25.48;17.50;;;;;;;15.62;100.00;95672.38;1017953;29;20570;-68
2021/07/04 00:56:11;;;;;;;25.30;16.73;;;;;;;15.61;100.00;95673.47;1017753;29;20577;-68
2021/07/04 00:56:42;;;;;;;27.02;17.25;;;;;;;15.54;100.00;95660.66;1014871;29;20039;-69
2021/07/04 00:57:12;;;;;;;21.48;16.23;;;;;;;15.59;100.00;95670.34;1018253;29;20023;-68
2021/07/04 00:57:43;;;;;;;27.65;18.77;;;;;;;15.52;100.00;95657.50;1014422;29;20032;-68
2021/07/04 00:58:14;;;;;;;25.67;17.60;;;;;;;15.60;100.00;95666.63;1018767;29;20026;-68
2021/07/04 00:58:44;;;;;;;24.15;15.93;;;;;;;15.60;100.00;95665.84;1010360;29;20072;-68
2021/07/04 00:59:15;;;;;;;21.00;16.48;;;;;;;15.59;100.00;95659.75;1015105;29;20430;-69
2021/07/04 00:59:45;;;;;;;25.77;19.27;;;;;;;15.59;100.00;95667.69;1014830;29;20032;-69
2021/07/04 01:00:20;;;;;;;25.52;17.58;;;;;;;15.53;100.00;95655.66;1015135;29;20028;-69
2021/07/04 01:00:51;;;;;;;21.50;15.60;;;;;;;15.59;100.00;95665.03;1018528;29;20111;-69
2021/07/04 01:01:21;;;;;;;21.35;16.52;;;;;;;15.58;100.00;95671.41;1015457;29;20120;-69
2021/07/04 01:01:57;;;;;;;21.67;16.25;;;;;;;15.56;100.00;95666.44;1018858;29;20027;-69
2021/07/04 01:02:27;;;;;;;26.08;18.23;;;;;;;15.59;100.00;95667.69;1015191;29;20111;-69
2021/07/04 01:02:58;;;;;;;24.63;18.08;;;;;;;15.59;100.00;95662.41;1011867;29;20061;-69
2021/07/04 01:03:32;;;;;;;27.90;19.95;;;;;;;15.60;100.00;95669.28;1014803;29;20039;-69
2021/07/04 01:04:03;;;;;;;26.40;19.60;;;;;;;15.57;100.00;95670.63;1020265;29;20043;-69
2021/07/04 01:04:33;;;;;;;21.60;16.25;;;;;;;15.59;100.00;95664.25;1023515;28;20030;-69
2021/07/04 01:05:30;;;;;;;21.58;16.63;;;;;;;15.58;100.00;95671.41;1022841;28;20709;-69
2021/07/04 01:06:04;;;;;;;22.35;16.08;;;;;;;15.59;100.00;95666.91;1013825;29;20047;-66
2021/07/04 01:06:34;;;;;;;23.90;17.70;;;;;;;15.58;100.00;95668.78;1015005;29;20028;-69
2021/07/04 01:07:05;;;;;;;24.63;17.60;;;;;;;15.58;100.00;95660.84;1018982;29;20024;-68
2021/07/04 01:07:35;;;;;;;25.02;18.17;;;;;;;15.59;100.00;95662.41;1021333;29;20110;-69
2021/07/04 01:08:06;;;;;;;27.58;19.02;;;;;;;15.58;100.00;95663.47;1018658;29;20388;-69
2021/07/04 01:08:36;;;;;;;25.42;17.67;;;;;;;15.57;100.00;95665.34;1018871;29;20493;-68
2021/07/04 01:09:07;;;;;;;26.88;19.40;;;;;;;15.57;100.00;95659.28;1006636;29;20040;-69
2021/07/04 01:09:37;;;;;;;29.05;20.80;;;;;;;15.60;100.00;95661.34;1007091;29;20041;-69
2021/07/04 01:10:09;;;;;;;25.77;17.98;;;;;;;15.62;100.00;95661.03;1007058;29;20098;-69
2021/07/04 01:10:39;;;;;;;28.40;20.42;;;;;;;15.61;100.00;95659.47;1013174;29;20500;-68
2021/07/04 01:11:13;;;;;;;25.10;18.55;;;;;;;15.60;100.00;95661.34;1015758;29;20127;-68
2021/07/04 01:11:43;;;;;;;23.85;17.65;;;;;;;15.59;100.00;95662.41;1014824;29;20036;-69
2021/07/04 01:12:14;;;;;;;28.02;18.45;;;;;;;15.57;100.00;95660.06;1015271;29;20065;-69
2021/07/04 01:12:45;;;;;;;26.52;18.35;;;;;;;15.57;100.00;95659.28;1014553;29;20036;-69
2021/07/04 01:13:16;;;;;;;27.75;19.55;;;;;;;15.52;100.00;95643.50;1018644;29;20031;-69
2021/07/04 01:13:46;;;;;;;27.77;19.58;;;;;;;15.59;100.00;95661.63;1018716;29;20027;-68
2021/07/04 01:14:17;;;;;;;25.40;18.52;;;;;;;15.51;100.00;95639.31;1011142;29;20040;-69
2021/07/04 01:14:47;;;;;;;23.63;18.13;;;;;;;15.60;100.00;95650.75;1010940;29;20040;-68
2021/07/04 01:15:19;;;;;;;24.65;18.58;;;;;;;15.59;100.00;95654.47;1018940;29;20038;-68
2021/07/04 01:15:49;;;;;;;25.15;17.55;;;;;;;15.58;100.00;95647.63;1017583;29;20187;-69
2021/07/04 01:16:20;;;;;;;28.23;18.92;;;;;;;15.58;100.00;95652.91;1017397;29;20545;-68
2021/07/04 01:16:50;;;;;;;25.88;17.63;;;;;;;15.53;100.00;95645.88;1014297;29;20047;-69
2021/07/04 01:17:21;;;;;;;27.27;19.33;;;;;;;15.56;100.00;95652.44;1017819;29;20028;-66
2021/07/04 01:17:52;;;;;;;27.30;20.10;;;;;;;15.55;100.00;95646.34;1019712;28;20031;-69
2021/07/04 01:18:22;;;;;;;28.70;20.15;;;;;;;15.56;100.00;95652.44;1018150;29;20111;-69
2021/07/04 01:18:53;;;;;;;28.17;19.63;;;;;;;15.52;100.00;95641.63;1015807;29;20537;-68
2021/07/04 01:19:24;;;;;;;24.77;17.67;;;;;;;15.56;100.00;95652.44;1014959;29;20032;-68
2021/07/04 01:19:54;;;;;;;27.92;18.70;;;;;;;15.53;100.00;95651.16;1011332;29;20111;-68
2021/07/04 01:20:26;;;;;;;35.70;19.77;;;;;;;15.53;100.00;95653.03;1011769;29;20032;-68
2021/07/04 01:20:58;;;;;;;25.17;18.50;;;;;;;15.57;100.00;95648.72;1011214;29;20182;-69
2021/07/04 01:21:29;;;;;;;27.73;19.63;;;;;;;15.56;100.00;95652.44;1010633;29;20108;-69
2021/07/04 01:22:03;;;;;;;24.42;17.80;;;;;;;15.48;100.00;95634.59;1011019;29;20483;-69
2021/07/04 01:22:33;;;;;;;26.60;16.88;;;;;;;15.55;100.00;95650.84;1010494;29;20036;-69
2021/07/04 01:23:06;;;;;;;23.35;17.63;;;;;;;15.55;100.00;95645.56;1010915;29;20136;-69
2021/07/04 01:23:36;;;;;;;27.15;19.58;;;;;;;15.55;100.00;95650.84;1008697;29;20062;-69
2021/07/04 01:24:16;;;;;;;23.98;17.25;;;;;;;15.54;100.00;95651.94;1013317;29;20016;-68
2021/07/04 01:24:46;;;;;;;20.10;15.73;;;;;;;15.50;100.00;95643.81;1012366;29;20036;-68
2021/07/04 01:25:17;;;;;;;22.85;16.48;;;;;;;15.53;100.00;95642.44;1008311;29;20060;-69
2021/07/04 01:25:52;;;;;;;22.98;17.38;;;;;;;15.54;100.00;95644.00;1008281;29;20032;-69
2021/07/04 01:26:23;;;;;;;24.23;17.25;;;;;;;15.55;100.00;95643.69;1007800;29;20801;-69
2021/07/04 01:26:53;;;;;;;24.85;17.63;;;;;;;15.53;100.00;95643.22;1014292;29;20055;-69
2021/07/04 01:27:24;;;;;;;21.35;17.25;;;;;;;15.52;100.00;95646.16;1018776;29;20030;-69
2021/07/04 01:27:54;;;;;;;23.85;17.77;;;;;;;15.54;100.00;95644.78;1018972;29;20020;-69
2021/07/04 01:28:25;;;;;;;23.20;17.40;;;;;;;15.53;100.00;95648.50;1020539;29;20068;-68
2021/07/04 01:28:55;;;;;;;18.38;15.65;;;;;;;15.53;100.00;95643.22;1015710;29;20124;-69
2021/07/04 01:29:26;;;;;;;27.38;20.63;;;;;;;15.54;100.00;95634.19;1015319;29;20513;-69
2021/07/04 01:29:56;;;;;;;25.98;18.75;;;;;;;15.54;100.00;95644.00;1018484;29;20504;-69
2021/07/04 01:30:33;;;;;;;23.60;17.27;;;;;;;15.53;100.00;95635.28;1014991;29;20040;-68
2021/07/04 01:31:03;;;;;;;24.20;17.70;;;;;;;15.49;100.00;95631.69;1010745;29;20013;-69
2021/07/04 01:31:37;;;;;;;26.88;17.58;;;;;;;15.52;100.00;95641.63;1017131;29;20023;-68
2021/07/04 01:32:10;;;;;;;22.10;17.52;;;;;;;15.54;100.00;95639.50;1010590;29;20025;-69
2021/07/04 01:32:41;;;;;;;26.45;18.08;;;;;;;15.53;100.00;95642.44;1014740;29;20024;-69
2021/07/04 01:33:11;;;;;;;28.58;19.38;;;;;;;15.54;100.00;95638.72;1017710;29;20540;-69
2021/07/04 01:33:41;;;;;;;23.33;18.27;;;;;;;15.54;100.00;95634.19;1017398;29;20442;-69
2021/07/04 01:34:12;;;;;;;26.33;19.10;;;;;;;15.56;100.00;95639.22;1018744;29;20831;-69
2021/07/04 01:34:43;;;;;;;28.88;19.35;;;;;;;15.49;100.00;95625.59;1022568;29;20069;-68
2021/07/04 01:35:13;;;;;;;25.00;18.38;;;;;;;15.48;100.00;95629.31;1016235;29;20555;-69
2021/07/04 01:35:44;;;;;;;26.98;19.40;;;;;;;15.54;100.00;95639.50;1022620;29;20048;-69
2021/07/04 01:36:14;;;;;;;27.58;19.83;;;;;;;15.56;100.00;95639.22;1018798;29;20083;-69
2021/07/04 01:36:45;;;;;;;26.48;18.00;;;;;;;15.58;100.00;95642.31;1018419;29;20489;-68
2021/07/04 01:37:18;;;;;;;24.73;18.23;;;;;;;15.56;100.00;95639.22;1014140;29;20401;-69
2021/07/04 01:37:49;;;;;;;26.95;19.90;;;;;;;15.55;100.00;95640.28;1015168;29;20537;-69
2021/07/04 01:38:22;;;;;;;27.55;19.75;;;;;;;15.47;100.00;95633.81;1014690;29;20028;-69
2021/07/04 01:38:59;;;;;;;22.00;17.35;;;;;;;15.54;100.00;95639.50;1011626;29;20478;-69
2021/07/04 01:39:32;;;;;;;28.92;18.45;;;;;;;15.54;100.00;95639.50;1014538;29;20016;-69
2021/07/04 01:40:03;;;;;;;24.30;17.73;;;;;;;15.54;100.00;95641.34;1015946;29;20024;-69
2021/07/04 01:40:37;;;;;;;29.25;20.00;;;;;;;15.50;100.00;95632.47;1018414;29;20023;-69
2021/07/04 01:41:07;;;;;;;24.95;18.80;;;;;;;15.53;100.00;95637.16;1018610;29;20032;-69
2021/07/04 01:41:38;;;;;;;27.40;19.45;;;;;;;15.53;100.00;95637.16;1014736;29;20043;-69
2021/07/04 01:42:08;;;;;;;23.40;18.25;;;;;;;15.54;100.00;95633.44;1015135;29;20132;-69
2021/07/04 01:42:41;;;;;;;25.23;18.80;;;;;;;15.53;100.00;95637.94;1018911;29;20125;-69
2021/07/04 01:43:11;;;;;;;32.80;19.42;;;;;;;15.51;100.00;95631.38;1015179;29;20020;-69
2021/07/04 01:43:45;;;;;;;30.33;20.27;;;;;;;15.54;100.00;95636.06;1014587;29;20068;-68
2021/07/04 01:44:15;;;;;;;25.95;18.75;;;;;;;15.50;100.00;95627.94;1008416;29;20245;-68
2021/07/04 01:44:46;;;;;;;22.50;18.08;;;;;;;15.52;100.00;95638.22;1008961;29;20546;-68
2021/07/04 01:45:17;;;;;;;25.27;18.25;;;;;;;15.53;100.00;95642.44;1009057;29;20085;-68
2021/07/04 01:45:47;;;;;;;26.77;18.85;;;;;;;15.52;100.00;95640.84;1014228;29;20525;-68
2021/07/04 01:46:18;;;;;;;26.67;18.02;;;;;;;15.55;100.00;95640.28;1022294;29;20023;-68
2021/07/04 01:46:51;;;;;;;27.23;18.38;;;;;;;15.54;100.00;95633.44;1017736;29;20034;-68
2021/07/04 01:47:22;;;;;;;26.33;17.88;;;;;;;15.54;100.00;95638.72;1017827;29;20038;-68
2021/07/04 01:47:54;;;;;;;27.33;18.38;;;;;;;15.55;100.00;95634.97;1006711;29;20021;-69
2021/07/04 01:48:24;;;;;;;25.60;17.73;;;;;;;15.55;100.00;95637.63;1003674;29;20060;-68
2021/07/04 01:48:55;;;;;;;21.83;17.30;;;;;;;15.54;100.00;95633.44;1006468;29;20036;-69
2021/07/04 01:49:25;;;;;;;33.20;18.73;;;;;;;15.48;100.00;95626.66;1007244;29;20044;-69
2021/07/04 01:49:56;;;;;;;24.88;18.20;;;;;;;15.51;100.00;95634.00;1014802;29;20099;-69
2021/07/04 01:50:29;;;;;;;26.90;18.75;;;;;;;15.53;100.00;95642.44;1014131;29;20538;-69
2021/07/04 01:50:59;;;;;;;26.83;18.63;;;;;;;15.53;100.00;95634.50;1014755;29;20119;-68
2021/07/04 01:51:29;;;;;;;29.60;20.85;;;;;;;15.52;100.00;95635.56;1017818;29;20024;-69
2021/07/04 01:52:00;;;;;;;29.77;19.38;;;;;;;15.54;100.00;95646.66;1017918;29;20027;-69
2021/07/04 01:52:30;;;;;;;29.08;19.85;;;;;;;15.52;100.00;95635.56;1018137;29;20334;-69
2021/07/04 01:53:01;;;;;;;25.00;18.83;;;;;;;15.53;100.00;95637.16;1022286;29;20030;-69
2021/07/04 01:53:31;;;;;;;28.20;18.65;;;;;;;15.56;100.00;95636.56;1022655;29;20075;-69
2021/07/04 01:54:02;;;;;;;25.17;17.88;;;;;;;15.54;100.00;95636.06;1021897;28;20035;-69
2021/07/04 01:54:33;;;;;;;26.13;19.15;;;;;;;15.48;100.00;95624.81;1018344;29;20040;-69
2021/07/04 01:55:06;;;;;;;26.38;18.05;;;;;;;15.45;100.00;95622.75;1014600;29;20016;-69
2021/07/04 01:55:36;;;;;;;23.90;18.10;;;;;;;15.53;100.00;95637.16;998926;29;20025;-68
2021/07/04 01:56:07;;;;;;;22.45;18.27;;;;;;;15.51;100.00;95636.66;1002799;29;20026;-69
2021/07/04 01:56:38;;;;;;;21.38;17.35;;;;;;;15.45;100.00;95624.63;1003689;29;20029;-69
2021/07/04 01:57:11;;;;;;;25.92;19.10;;;;;;;15.50;100.00;95637.75;1010338;29;20016;-68
2021/07/04 01:57:42;;;;;;;25.13;18.85;;;;;;;15.49;100.00;95634.31;1006938;29;20084;-69
2021/07/04 01:58:12;;;;;;;21.77;16.83;;;;;;;15.48;100.00;95635.38;1010689;29;20375;-69
2021/07/04 01:58:43;;;;;;;22.50;18.05;;;;;;;15.47;100.00;95635.69;1010647;29;20073;-65
2021/07/04 01:59:13;;;;;;;23.92;17.38;;;;;;;15.47;100.00;95631.19;1018781;29;20066;-69
2021/07/04 01:59:44;;;;;;;25.23;19.25;;;;;;;15.47;100.00;95627.75;1022329;29;20024;-69
2021/07/04 02:00:17;;;;;;;24.67;19.38;;;;;;;15.49;100.00;95634.31;1022412;29;20015;-68
2021/07/04 02:00:48;;;;;;;26.83;19.08;;;;;;;15.48;100.00;95642.53;1020029;29;20016;-69
2021/07/04 02:01:18;;;;;;;30.33;19.10;;;;;;;15.47;100.00;95636.47;1022431;29;20031;-69
2021/07/04 02:01:49;;;;;;;24.17;18.40;;;;;;;15.44;100.00;95628.34;1018110;29;20039;-70
2021/07/04 02:02:19;;;;;;;25.13;17.55;;;;;;;15.50;100.00;95637.75;1017828;29;20024;-68
2021/07/04 02:02:52;;;;;;;24.30;18.08;;;;;;;15.42;100.00;95619.91;1018517;29;20035;-69
2021/07/04 02:03:22;;;;;;;25.70;18.40;;;;;;;15.50;100.00;95633.22;1010938;29;20028;-69
2021/07/04 02:03:53;;;;;;;25.38;19.23;;;;;;;15.52;100.00;95630.28;1013608;29;20024;-69
2021/07/04 02:04:23;;;;;;;25.63;19.17;;;;;;;15.52;100.00;95635.56;1009608;29;20490;-68
2021/07/04 02:04:53;;;;;;;28.58;18.73;;;;;;;15.50;100.00;95638.53;1010756;29;20687;-69
2021/07/04 02:05:24;;;;;;;29.48;20.38;;;;;;;15.50;100.00;95629.81;1014463;29;20127;-69
2021/07/04 02:05:55;;;;;;;26.88;18.20;;;;;;;15.50;100.00;95629.81;1018191;29;20394;-69
2021/07/04 02:06:25;;;;;;;23.08;17.50;;;;;;;15.51;100.00;95631.38;1018509;29;20038;-69
2021/07/04 02:06:56;;;;;;;25.98;17.17;;;;;;;15.51;100.00;95634.00;1022491;29;20433;-70
2021/07/04 02:07:26;;;;;;;24.95;18.27;;;;;;;15.49;100.00;95633.50;1018731;29;20039;-68
2021/07/04 02:07:56;;;;;;;23.60;18.10;;;;;;;15.49;100.00;95633.50;1014516;29;20063;-69
2021/07/04 02:08:27;;;;;;;23.00;17.33;;;;;;;15.51;100.00;95634.00;1010491;29;20106;-68
2021/07/04 02:08:57;;;;;;;26.88;18.45;;;;;;;15.44;100.00;95621.19;1007584;29;20082;-68
2021/07/04 02:09:30;;;;;;;23.70;19.15;;;;;;;15.49;100.00;95625.59;1018428;29;20035;-69
2021/07/04 02:10:01;;;;;;;24.52;19.02;;;;;;;15.43;100.00;95622.28;1022608;29;20115;-69
2021/07/04 02:10:33;;;;;;;23.52;17.58;;;;;;;15.42;100.00;95618.03;1022503;29;20035;-69
2021/07/04 02:11:07;;;;;;;24.40;17.58;;;;;;;15.49;100.00;95634.31;1013130;29;20041;-69
2021/07/04 02:11:37;;;;;;;25.10;18.13;;;;;;;15.46;100.00;95634.09;1014656;29;20032;-69
2021/07/04 02:12:08;;;;;;;29.70;18.08;;;;;;;15.49;100.00;95630.88;1014536;29;20044;-69
2021/07/04 02:12:38;;;;;;;27.95;17.65;;;;;;;15.48;100.00;95629.31;1016859;29;20038;-69
2021/07/04 02:13:09;;;;;;;25.55;18.40;;;;;;;15.49;100.00;95625.59;1022324;29;20527;-69
2021/07/04 02:13:39;;;;;;;27.48;18.95;;;;;;;15.49;100.00;95630.88;1018543;29;20094;-69
2021/07/04 02:14:10;;;;;;;24.42;17.10;;;;;;;15.49;100.00;95629.03;1014374;29;20214;-68
2021/07/04 02:14:40;;;;;;;26.20;17.95;;;;;;;15.43;100.00;95621.50;1013976;29;20152;-69
2021/07/04 02:15:18;;;;;;;26.38;18.90;;;;;;;15.49;100.00;95631.69;1010863;29;20035;-68
2021/07/04 02:15:49;;;;;;;21.25;16.63;;;;;;;15.49;100.00;95631.69;1014328;29;20101;-68
2021/07/04 02:16:19;;;;;;;27.70;18.23;;;;;;;15.49;100.00;95631.69;1018484;29;20605;-69
2021/07/04 02:16:50;;;;;;;25.10;18.17;;;;;;;15.50;100.00;95629.81;1014449;29;20047;-69
2021/07/04 02:17:20;;;;;;;24.60;16.70;;;;;;;15.49;100.00;95629.03;1009259;29;20044;-68
2021/07/04 02:17:51;;;;;;;26.15;18.70;;;;;;;15.48;100.00;95629.31;1010030;29;20557;-68
2021/07/04 02:18:21;;;;;;;24.73;17.70;;;;;;;15.40;100.00;95619.44;1014792;29;20036;-69
2021/07/04 02:18:52;;;;;;;20.75;16.73;;;;;;;15.48;100.00;95634.59;1018284;29;20027;-69
2021/07/04 02:19:25;;;;;;;24.90;18.52;;;;;;;15.46;100.00;95634.91;1015941;29;20407;-68
2021/07/04 02:19:55;;;;;;;24.75;17.77;;;;;;;15.47;100.00;95635.69;1014590;29;20479;-68
2021/07/04 02:20:31;;;;;;;22.88;16.33;;;;;;;15.47;100.00;95638.34;1006763;29;20029;-69
2021/07/04 02:21:01;;;;;;;24.83;17.40;;;;;;;15.48;100.00;95629.31;1007479;29;20032;-69
2021/07/04 02:21:32;;;;;;;22.77;17.92;;;;;;;15.46;100.00;95637.56;1009889;29;20513;-68
2021/07/04 02:22:03;;;;;;;21.85;17.80;;;;;;;15.43;100.00;95629.44;1015052;29;20032;-69
2021/07/04 02:22:33;;;;;;;23.90;17.33;;;;;;;15.42;100.00;95619.91;1018462;29;20039;-69